createdAt,value
2023-06-29T00:01:34.991Z,3.35
2023-06-29T00:04:37.392Z,2.97
2023-06-29T00:07:39.944Z,1.95
2023-06-29T00:10:42.562Z,2.42
2023-06-29T00:13:44.899Z,2.13
2023-06-29T00:16:51.669Z,3.20
2023-06-29T00:19:54.013Z,3.13
2023-06-29T00:22:56.310Z,5.28
2023-06-29T00:25:58.627Z,3.92
2023-06-29T00:29:01.004Z,2.65
2023-06-29T00:32:05.382Z,4.10
2023-06-29T00:35:08.460Z,1.90
2023-06-29T00:38:10.726Z,2.97
2023-06-29T00:41:13.042Z,2.17
2023-06-29T00:44:15.370Z,2.88
2023-06-29T00:47:19.214Z,4.15
2023-06-29T00:50:22.825Z,2.20
2023-06-29T00:53:25.283Z,3.58
2023-06-29T00:56:27.862Z,3.22
2023-06-29T00:59:30.139Z,1.85
2023-06-29T01:02:41.877Z,2.03
2023-06-29T01:05:46.498Z,1.92
2023-06-29T01:08:51.017Z,4.47
2023-06-29T01:11:53.835Z,2.72
2023-06-29T01:14:56.546Z,4.15
2023-06-29T01:18:01.243Z,4.43
2023-06-29T01:21:04.037Z,4.95
2023-06-29T01:24:07.406Z,3.88
2023-06-29T01:27:15.482Z,5.50
2023-06-29T01:30:17.931Z,3.30
2023-06-29T01:33:23.041Z,4.10
2023-06-29T01:36:31.264Z,4.20
2023-06-29T01:39:38.451Z,2.08
2023-06-29T01:42:43.236Z,3.30
2023-06-29T01:45:46.928Z,2.88
2023-06-29T01:48:51.571Z,2.15
2023-06-29T01:51:53.966Z,3.03
2023-06-29T01:54:56.354Z,3.50
2023-06-29T01:58:00.058Z,2.05
2023-06-29T02:01:02.446Z,1.88
2023-06-29T02:04:05.086Z,2.80
2023-06-29T02:07:07.461Z,4.90
2023-06-29T02:10:10.820Z,2.47
2023-06-29T02:13:15.344Z,2.45
2023-06-29T02:16:17.741Z,2.63
2023-06-29T02:19:20.057Z,4.07
2023-06-29T02:22:22.519Z,2.80
2023-06-29T02:25:26.773Z,4.32
2023-06-29T02:28:32.842Z,2.33
2023-06-29T02:31:35.240Z,1.83
2023-06-29T02:34:37.773Z,2.13
2023-06-29T02:37:40.118Z,3.20
2023-06-29T02:40:42.807Z,2.95
2023-06-29T02:43:46.435Z,3.15
2023-06-29T02:46:48.990Z,4.63
2023-06-29T02:49:51.339Z,2.10
2023-06-29T02:52:55.912Z,2.92
2023-06-29T02:55:58.211Z,4.72
2023-06-29T02:59:02.210Z,3.13
2023-06-29T03:02:04.926Z,4.20
2023-06-29T03:05:07.847Z,2.08
2023-06-29T03:08:10.745Z,3.88
2023-06-29T03:11:13.007Z,3.20
2023-06-29T03:14:16.561Z,1.90
2023-06-29T03:17:18.845Z,3.45
2023-06-29T03:20:21.500Z,3.13
2023-06-29T03:23:23.805Z,4.38
2023-06-29T03:26:26.099Z,4.88
2023-06-29T03:29:29.688Z,2.78
2023-06-29T03:32:32.088Z,2.60
2023-06-29T03:35:34.466Z,2.45
2023-06-29T03:38:36.854Z,1.80
2023-06-29T03:41:39.102Z,3.13
2023-06-29T03:44:42.695Z,2.15
2023-06-29T03:47:45.199Z,2.22
2023-06-29T03:53:49.790Z,3.17
2023-06-29T03:56:52.030Z,2.45
2023-06-29T03:59:55.878Z,2.05
2023-06-29T04:02:58.172Z,2.35
2023-06-29T04:06:00.517Z,1.98
2023-06-29T04:09:03.880Z,3.15
2023-06-29T04:12:07.110Z,2.90
2023-06-29T04:15:11.499Z,2.58
2023-06-29T04:18:13.756Z,2.10
2023-06-29T04:21:16.096Z,2.40
2023-06-29T04:24:18.479Z,2.50
2023-06-29T04:27:20.766Z,2.25
2023-06-29T04:30:24.530Z,3.85
2023-06-29T04:33:26.901Z,4.80
2023-06-29T04:36:29.274Z,2.90
2023-06-29T04:39:31.532Z,2.92
2023-06-29T04:42:33.726Z,3.90
2023-06-29T04:45:37.429Z,3.30
2023-06-29T04:48:39.865Z,4.82
2023-06-29T04:51:42.153Z,3.30
2023-06-29T04:54:44.490Z,4.43
2023-06-29T04:57:46.853Z,4.05
2023-06-29T05:00:50.608Z,4.88
2023-06-29T05:03:53.166Z,4.68
2023-06-29T05:06:55.549Z,3.97
2023-06-29T05:09:59.316Z,3.78
2023-06-29T05:13:01.584Z,5.53
2023-06-29T05:16:05.803Z,4.32
2023-06-29T05:19:08.057Z,3.65
2023-06-29T05:22:10.406Z,3.92
2023-06-29T05:25:13.044Z,3.13
2023-06-29T05:28:15.325Z,3.17
2023-06-29T05:31:19.041Z,4.85
2023-06-29T05:34:21.402Z,3.72
2023-06-29T05:37:23.779Z,3.67
2023-06-29T05:40:26.061Z,3.40
2023-06-29T05:43:28.272Z,3.72
2023-06-29T05:46:33.851Z,4.22
2023-06-29T05:49:36.242Z,5.97
2023-06-29T05:52:38.994Z,2.88
2023-06-29T05:55:41.300Z,2.83
2023-06-29T05:58:43.594Z,3.20
2023-06-29T06:01:47.334Z,2.95
2023-06-29T06:04:50.389Z,4.50
2023-06-29T06:07:52.643Z,3.08
2023-06-29T06:10:55.078Z,6.95
2023-06-29T06:13:57.633Z,14.25
2023-06-29T06:17:01.313Z,3.28
2023-06-29T06:20:06.280Z,2.60
2023-06-29T06:23:08.518Z,3.05
2023-06-29T06:26:11.257Z,3.25
2023-06-29T06:29:13.752Z,2.75
2023-06-29T06:32:17.481Z,2.58
2023-06-29T06:35:19.962Z,4.20
2023-06-29T06:38:22.178Z,4.10
2023-06-29T06:41:24.448Z,2.72
2023-06-29T06:44:26.852Z,4.07
2023-06-29T06:47:30.902Z,3.28
2023-06-29T06:50:33.146Z,3.88
2023-06-29T06:53:35.405Z,4.10
2023-06-29T06:56:38.353Z,3.25
2023-06-29T06:59:40.641Z,2.75
2023-06-29T07:02:44.432Z,5.03
2023-06-29T07:05:47.087Z,2.13
2023-06-29T07:08:49.421Z,1.88
2023-06-29T07:11:51.629Z,2.28
2023-06-29T07:14:53.935Z,6.13
2023-06-29T07:17:57.572Z,4.10
2023-06-29T07:24:08.066Z,3.67
2023-06-29T07:27:10.777Z,2.75
2023-06-29T07:30:14.150Z,3.15
2023-06-29T07:33:17.736Z,6.20
2023-06-29T07:36:20.432Z,2.15
2023-06-29T07:39:23.116Z,4.53
2023-06-29T07:42:38.029Z,1.73
2023-06-29T07:45:41.622Z,5.55
2023-06-29T07:48:45.450Z,4.22
2023-06-29T07:51:47.875Z,2.67
2023-06-29T07:54:50.535Z,2.35
2023-06-29T08:00:58.848Z,2.42
2023-06-29T08:04:04.363Z,3.55
2023-06-29T08:07:10.157Z,2.25
2023-06-29T08:10:13.306Z,5.07
2023-06-29T08:13:16.027Z,2.97
2023-06-29T08:16:18.506Z,2.90
2023-06-29T08:19:22.329Z,6.47
2023-06-29T08:22:24.737Z,2.03
2023-06-29T08:25:27.079Z,2.25
2023-06-29T08:28:29.370Z,2.05
2023-06-29T08:31:31.730Z,4.25
2023-06-29T08:34:35.491Z,3.22
2023-06-29T08:37:37.790Z,2.65
2023-06-29T08:40:40.931Z,2.00
2023-06-29T08:43:43.402Z,4.07
2023-06-29T08:46:47.065Z,3.22
2023-06-29T08:49:55.618Z,5.15
2023-06-29T08:52:58.256Z,2.08
2023-06-29T08:56:02.305Z,2.28
2023-06-29T08:59:04.839Z,3.15
2023-06-29T09:02:07.478Z,2.75
2023-06-29T09:05:13.488Z,4.97
2023-06-29T09:08:15.941Z,5.57
2023-06-29T09:11:18.252Z,3.22
2023-06-29T09:14:20.637Z,3.15
2023-06-29T09:17:23.123Z,6.70
2023-06-29T09:20:28.584Z,3.72
2023-06-29T09:23:31.253Z,3.25
2023-06-29T09:26:33.522Z,2.92
2023-06-29T09:29:40.035Z,2.42
2023-06-29T09:32:42.685Z,1.83
2023-06-29T09:35:47.479Z,3.50
2023-06-29T09:38:49.853Z,2.17
2023-06-29T09:41:53.406Z,2.75
2023-06-29T09:44:55.749Z,2.67
2023-06-29T09:51:09.092Z,1.60
2023-06-29T09:54:11.834Z,2.97
2023-06-29T09:57:14.426Z,3.53
2023-06-29T10:00:17.342Z,2.38
2023-06-29T10:03:19.781Z,4.85
2023-06-29T10:06:32.244Z,2.13
2023-06-29T10:09:38.837Z,2.50
2023-06-29T10:12:41.968Z,2.38
2023-06-29T10:15:44.850Z,1.85
2023-06-29T10:18:48.433Z,1.65
2023-06-29T10:21:55.223Z,3.03
2023-06-29T10:25:05.074Z,3.33
2023-06-29T10:28:08.670Z,1.80
2023-06-29T10:31:11.404Z,1.70
2023-06-29T10:34:14.363Z,2.53
2023-06-29T10:37:30.623Z,2.35
2023-06-29T10:40:32.946Z,1.65
2023-06-29T10:43:56.684Z,2.00
2023-06-29T10:47:00.339Z,3.63
2023-06-29T10:50:28.630Z,3.42
2023-06-29T10:53:35.633Z,3.45
2023-06-29T10:56:38.382Z,4.72
2023-06-29T10:59:41.421Z,4.70
2023-06-29T11:02:44.983Z,6.88
2023-06-29T11:05:51.304Z,3.55
2023-06-29T11:08:54.997Z,5.68
2023-06-29T11:11:57.930Z,6.40
2023-06-29T11:15:18.773Z,4.68
2023-06-29T11:18:22.451Z,4.38
2023-06-29T11:21:26.312Z,4.82
2023-06-29T11:24:31.161Z,7.35
2023-06-29T11:27:33.604Z,4.40
2023-06-29T11:30:39.920Z,5.45
2023-06-29T11:33:47.692Z,4.53
2023-06-29T11:40:21.394Z,5.15
2023-06-29T11:46:28.476Z,5.57
2023-06-29T11:49:30.827Z,6.05
2023-06-29T11:52:33.790Z,3.83
2023-06-29T11:55:37.533Z,3.70
2023-06-29T11:58:43.756Z,4.40
2023-06-29T12:01:46.180Z,3.35
2023-06-29T12:04:56.565Z,4.43
2023-06-29T12:08:05.969Z,3.92
2023-06-29T12:11:16.754Z,4.72
2023-06-29T12:14:19.282Z,4.90
2023-06-29T12:20:27.304Z,3.88
2023-06-29T12:23:29.753Z,3.35
2023-06-29T12:26:33.796Z,5.72
2023-06-29T12:29:37.706Z,2.95
2023-06-29T12:32:41.632Z,3.42
2023-06-29T12:35:44.595Z,2.67
2023-06-29T12:38:47.210Z,3.45
2023-06-29T12:41:50.775Z,4.70
2023-06-29T12:44:53.390Z,3.08
2023-06-29T12:47:55.677Z,4.72
2023-06-29T12:51:00.872Z,4.25
2023-06-29T12:54:08.106Z,4.70
2023-06-29T12:57:13.551Z,2.90
2023-06-29T13:00:19.714Z,2.50
2023-06-29T13:03:22.241Z,2.55
2023-06-29T13:06:24.741Z,7.72
2023-06-29T13:09:27.077Z,4.68
2023-06-29T13:12:31.254Z,6.10
2023-06-29T13:15:33.534Z,8.82
2023-06-29T13:18:35.944Z,6.10
2023-06-29T13:21:38.240Z,6.72
2023-06-29T13:24:40.766Z,7.30
2023-06-29T13:27:44.950Z,6.97
2023-06-29T13:30:47.354Z,5.80
2023-06-29T13:33:49.900Z,6.55
2023-06-29T13:36:52.828Z,7.90
2023-06-29T13:39:55.285Z,7.38
2023-06-29T13:42:59.018Z,5.65
2023-06-29T13:46:01.347Z,7.75
2023-06-29T13:49:04.457Z,8.57
2023-06-29T13:52:07.053Z,6.43
2023-06-29T13:55:09.578Z,8.82
2023-06-29T13:58:13.479Z,11.18
2023-06-29T14:01:16.087Z,8.10
2023-06-29T14:04:19.332Z,7.97
2023-06-29T14:07:23.948Z,9.75
2023-06-29T14:10:26.481Z,9.55
2023-06-29T14:13:32.004Z,8.15
2023-06-29T14:16:34.577Z,8.80
2023-06-29T14:19:36.883Z,9.15
2023-06-29T14:22:39.221Z,10.20
2023-06-29T14:25:41.589Z,8.65
2023-06-29T14:28:45.259Z,9.90
2023-06-29T14:31:47.718Z,9.18
2023-06-29T14:34:50.956Z,9.23
2023-06-29T14:37:53.310Z,9.15
2023-06-29T14:41:15.580Z,9.95
2023-06-29T14:44:19.433Z,11.02
2023-06-29T14:47:21.763Z,10.00
2023-06-29T14:50:24.157Z,10.23
2023-06-29T14:53:26.479Z,10.80
2023-06-29T14:56:28.794Z,10.20
2023-06-29T14:59:32.422Z,10.75
2023-06-29T15:02:34.795Z,10.15
2023-06-29T15:05:37.131Z,9.45
2023-06-29T15:08:39.556Z,11.23
2023-06-29T15:11:42.866Z,10.63
2023-06-29T15:14:46.577Z,11.77
2023-06-29T15:17:48.945Z,10.60
2023-06-29T15:20:51.371Z,10.63
2023-06-29T15:23:53.696Z,11.07
2023-06-29T15:26:56.582Z,11.23
2023-06-29T15:30:01.204Z,11.73
2023-06-29T15:33:03.698Z,10.18
2023-06-29T15:36:06.084Z,10.13
2023-06-29T15:39:08.549Z,10.80
2023-06-29T15:42:11.014Z,10.70
2023-06-29T15:45:14.690Z,9.98
2023-06-29T15:48:17.065Z,9.90
2023-06-29T15:51:19.519Z,9.75
2023-06-29T15:54:21.816Z,10.48
2023-06-29T15:57:24.147Z,9.50
2023-06-29T16:00:29.409Z,9.52
2023-06-29T16:03:31.816Z,9.15
2023-06-29T16:06:34.275Z,8.93
2023-06-29T16:09:38.417Z,9.68
2023-06-29T16:12:40.726Z,9.50
2023-06-29T16:15:44.812Z,10.15
2023-06-29T16:18:47.604Z,9.43
2023-06-29T16:21:49.962Z,12.88
2023-06-29T16:24:52.291Z,9.07
2023-06-29T16:27:54.731Z,9.60
2023-06-29T16:31:00.026Z,9.48
2023-06-29T16:34:03.760Z,10.50
2023-06-29T16:37:07.943Z,9.65
2023-06-29T16:40:15.608Z,9.88
2023-06-29T16:43:17.939Z,9.27
2023-06-29T16:46:21.646Z,9.77
2023-06-29T16:49:23.996Z,9.68
2023-06-29T16:52:26.274Z,9.80
2023-06-29T16:55:28.661Z,9.93
2023-06-29T16:58:30.991Z,10.60
2023-06-29T17:01:34.760Z,10.02
2023-06-29T17:04:37.100Z,9.38
2023-06-29T17:07:39.467Z,10.40
2023-06-29T17:10:41.875Z,9.38
2023-06-29T17:13:44.397Z,12.90
2023-06-29T17:16:48.278Z,13.05
2023-06-29T17:19:50.904Z,9.93
2023-06-29T17:22:53.331Z,10.20
2023-06-29T17:25:55.798Z,11.15
2023-06-29T17:28:58.298Z,10.23
2023-06-29T17:32:02.168Z,10.93
2023-06-29T17:35:05.327Z,11.10
2023-06-29T17:38:07.701Z,13.55
2023-06-29T17:41:10.504Z,11.55
2023-06-29T17:44:14.760Z,11.50
2023-06-29T17:47:18.435Z,11.23
2023-06-29T17:50:20.852Z,12.15
2023-06-29T17:53:23.260Z,12.02
2023-06-29T17:56:25.579Z,11.70
2023-06-29T17:59:27.837Z,12.18
2023-06-29T18:02:31.568Z,12.63
2023-06-29T18:05:33.832Z,11.95
2023-06-29T18:08:36.266Z,12.02
2023-06-29T18:11:38.658Z,12.23
2023-06-29T18:14:41.475Z,12.75
2023-06-29T18:17:45.240Z,12.38
2023-06-29T18:20:47.880Z,14.50
2023-06-29T18:23:50.354Z,11.88
2023-06-29T18:26:52.650Z,13.02
2023-06-29T18:29:55.048Z,12.65
2023-06-29T18:32:58.766Z,14.07
2023-06-29T18:36:01.222Z,13.82
2023-06-29T18:39:03.740Z,13.25
2023-06-29T18:42:06.982Z,12.15
2023-06-29T18:45:10.200Z,13.40
2023-06-29T18:48:14.313Z,13.05
2023-06-29T18:51:49.008Z,13.45
2023-06-29T18:55:25.536Z,11.93
2023-06-29T19:03:11.681Z,14.10
2023-06-29T19:06:38.736Z,13.65
2023-06-29T19:41:08.046Z,15.57
2023-06-29T19:49:51.765Z,15.88
2023-06-29T19:52:54.088Z,15.80
2023-06-29T19:55:57.877Z,15.98
2023-06-29T19:59:00.261Z,14.68
2023-06-29T20:02:02.833Z,15.40
2023-06-29T20:05:06.367Z,16.85
2023-06-29T20:08:08.808Z,16.70
2023-06-29T20:11:12.726Z,16.73
2023-06-29T20:14:15.186Z,16.27
2023-06-29T20:17:17.715Z,15.98
2023-06-29T20:20:20.142Z,18.48
2023-06-29T20:23:22.621Z,17.02
2023-06-29T20:26:26.376Z,16.88
2023-06-29T20:29:28.710Z,19.45
2023-06-29T20:32:31.239Z,17.48
2023-06-29T20:35:34.623Z,20.90
2023-06-29T20:38:36.973Z,17.98
2023-06-29T20:41:41.937Z,18.67
2023-06-29T20:44:47.023Z,18.25
2023-06-29T20:47:51.557Z,19.20
2023-06-29T20:51:03.730Z,18.75
2023-06-29T20:54:16.539Z,21.85
2023-06-29T20:57:23.752Z,19.63
2023-06-29T21:00:26.588Z,19.45
2023-06-29T21:03:34.088Z,18.33
2023-06-29T21:06:36.538Z,18.80
2023-06-29T21:09:38.879Z,17.23
2023-06-29T21:12:43.152Z,19.85
2023-06-29T21:15:46.151Z,18.63
2023-06-29T21:18:49.613Z,17.58
2023-06-29T21:21:52.656Z,19.15
2023-06-29T21:24:55.379Z,19.10
2023-06-29T21:27:59.229Z,18.30
2023-06-29T21:31:02.213Z,19.02
2023-06-29T21:34:04.943Z,17.90
2023-06-29T21:37:08.626Z,17.10
2023-06-29T21:40:12.466Z,15.73
2023-06-29T21:43:16.251Z,15.77
2023-06-29T21:46:18.617Z,18.55
2023-06-29T21:49:21.891Z,17.80
2023-06-29T21:52:24.844Z,15.90
2023-06-29T21:55:27.222Z,17.30
2023-06-29T21:58:30.974Z,16.42
2023-06-29T22:01:33.396Z,15.00
2023-06-29T22:04:35.887Z,15.25
2023-06-29T22:07:38.396Z,17.80
2023-06-29T22:10:40.843Z,17.58
2023-06-29T22:13:45.627Z,15.80
2023-06-29T22:16:48.045Z,16.98
2023-06-29T22:20:14.760Z,16.25
2023-06-29T22:23:17.113Z,15.77
2023-06-29T22:26:19.558Z,15.23
2023-06-29T22:29:23.242Z,18.40
2023-06-29T22:32:25.600Z,16.08
2023-06-29T22:35:28.096Z,18.08
2023-06-29T22:38:30.513Z,15.55
2023-06-29T22:41:32.823Z,17.25
2023-06-29T22:44:36.632Z,16.23
2023-06-29T22:47:39.000Z,15.18
2023-06-29T22:50:42.525Z,14.45
2023-06-29T22:53:45.002Z,14.15
2023-06-29T22:56:47.883Z,15.18
2023-06-29T22:59:51.737Z,12.30
2023-06-29T23:02:54.389Z,12.43
2023-06-29T23:05:56.751Z,12.20
2023-06-29T23:08:59.379Z,12.45
2023-06-29T23:12:04.860Z,12.00
2023-06-29T23:15:11.711Z,13.30
2023-06-29T23:18:14.499Z,11.85
2023-06-29T23:21:17.602Z,11.25
2023-06-29T23:24:22.357Z,10.73
2023-06-29T23:27:24.737Z,10.82
2023-06-29T23:30:28.312Z,11.15
2023-06-29T23:33:30.692Z,11.18
2023-06-29T23:36:33.171Z,10.95
2023-06-29T23:39:38.300Z,10.60
2023-06-29T23:42:43.592Z,9.50
2023-06-29T23:45:48.210Z,8.73
2023-06-29T23:48:50.887Z,7.65
2023-06-29T23:51:53.185Z,6.28
2023-06-29T23:54:55.966Z,5.63
2023-06-29T23:57:59.153Z,3.78
